createdAt,value
2018-09-28T01:39:59.914Z,12.90
2018-09-28T01:42:27.422Z,9.80
2018-09-28T01:44:55.193Z,9.80
2018-09-28T01:47:23.004Z,9.70
2018-09-28T01:49:50.718Z,9.70
2018-09-28T01:52:18.461Z,9.70
2018-09-28T01:54:46.114Z,9.70
2018-09-28T01:57:13.979Z,9.70
2018-09-28T01:59:41.668Z,9.70
2018-09-28T02:02:09.390Z,9.70
2018-09-28T02:04:37.038Z,9.60
2018-09-28T02:07:04.871Z,9.70
2018-09-28T02:09:32.585Z,9.70
2018-09-28T02:12:00.310Z,9.70
2018-09-28T02:14:28.026Z,9.60
2018-09-28T02:16:55.754Z,9.60
2018-09-28T02:19:24.113Z,9.60
2018-09-28T02:21:51.827Z,9.60
2018-09-28T02:24:19.516Z,9.60
2018-09-28T02:26:47.311Z,9.60
2018-09-28T02:29:15.090Z,9.60
2018-09-28T02:31:42.871Z,9.60
2018-09-28T02:34:10.903Z,9.50
2018-09-28T02:36:38.707Z,9.50
2018-09-28T02:39:06.821Z,9.50
2018-09-28T02:41:35.050Z,9.40
2018-09-28T02:44:02.835Z,9.40
2018-09-28T02:46:30.897Z,9.50
2018-09-28T02:48:58.657Z,9.40
2018-09-28T02:51:26.788Z,9.40
2018-09-28T02:53:54.599Z,9.40
2018-09-28T02:56:22.325Z,9.40
2018-09-28T02:58:50.016Z,9.40
2018-09-28T03:01:17.826Z,9.40
2018-09-28T03:03:45.576Z,9.40
2018-09-28T03:06:13.388Z,9.50
2018-09-28T03:08:41.197Z,9.40
2018-09-28T03:11:09.034Z,9.40
2018-09-28T03:13:36.846Z,9.30
2018-09-28T03:16:04.763Z,9.20
2018-09-28T03:18:32.541Z,9.20
2018-09-28T03:21:00.292Z,9.00
2018-09-28T03:23:28.078Z,9.00
2018-09-28T03:25:56.053Z,8.90
2018-09-28T03:28:23.938Z,8.90
2018-09-28T03:30:51.658Z,8.90
2018-09-28T03:33:19.406Z,8.90
2018-09-28T03:35:47.324Z,8.90
2018-09-28T03:38:15.081Z,9.00
2018-09-28T03:40:42.843Z,8.90
2018-09-28T03:43:10.612Z,8.90
2018-09-28T03:45:38.461Z,8.90
2018-09-28T03:48:07.207Z,9.00
2018-09-28T03:50:36.293Z,8.90
2018-09-28T03:53:04.116Z,8.90
2018-09-28T03:55:31.853Z,8.80
2018-09-28T03:57:59.661Z,8.80
2018-09-28T04:00:27.444Z,8.70
2018-09-28T04:02:56.086Z,8.70
2018-09-28T04:05:24.496Z,8.70
2018-09-28T04:07:52.243Z,8.70
2018-09-28T04:10:20.310Z,8.70
2018-09-28T04:12:48.082Z,8.60
2018-09-28T04:15:18.104Z,8.60
2018-09-28T04:17:45.895Z,8.60
2018-09-28T04:20:16.207Z,8.50
2018-09-28T04:22:45.266Z,8.50
2018-09-28T04:25:13.104Z,8.50
2018-09-28T04:27:41.013Z,8.50
2018-09-28T04:30:08.880Z,8.50
2018-09-28T04:32:36.756Z,8.50
2018-09-28T04:35:04.482Z,8.60
2018-09-28T04:37:33.756Z,8.60
2018-09-28T04:40:01.737Z,8.50
2018-09-28T04:42:29.618Z,8.40
2018-09-28T04:44:57.761Z,8.30
2018-09-28T04:47:26.253Z,8.40
2018-09-28T04:49:56.181Z,8.30
2018-09-28T05:28:41.014Z,8.40
2018-09-28T05:31:08.668Z,7.90
2018-09-28T05:33:44.268Z,7.90
2018-09-28T05:36:11.708Z,7.90
2018-09-28T05:38:39.162Z,7.90
2018-09-28T05:41:06.729Z,7.80
2018-09-28T05:43:34.380Z,7.70
2018-09-28T05:46:01.995Z,7.60
2018-09-28T05:48:30.689Z,7.60
2018-09-28T05:50:58.350Z,7.60
2018-09-28T05:53:26.013Z,7.60
2018-09-28T05:55:53.584Z,7.60
2018-09-28T05:58:26.489Z,7.60
2018-09-28T06:00:59.611Z,7.60
2018-09-28T06:03:27.277Z,7.80
2018-09-28T06:06:01.462Z,7.80
2018-09-28T06:08:29.161Z,7.90
2018-09-28T06:10:56.758Z,8.00
2018-09-28T06:13:24.418Z,8.10
2018-09-28T06:15:52.348Z,8.20
2018-09-28T06:18:20.001Z,8.30
2018-09-28T06:20:48.126Z,8.40
2018-09-28T06:23:15.805Z,8.70
2018-09-28T06:25:52.516Z,8.90
2018-09-28T06:28:20.124Z,9.00
2018-09-28T06:30:47.756Z,9.20
2018-09-28T06:33:15.461Z,9.40
2018-09-28T06:35:43.090Z,9.70
2018-09-28T06:38:10.758Z,9.90
2018-09-28T06:40:39.563Z,10.10
2018-09-28T06:43:07.225Z,10.30
2018-09-28T06:45:34.826Z,10.60
2018-09-28T06:48:02.564Z,10.80
2018-09-28T06:50:32.065Z,11.20
2018-09-28T06:52:59.970Z,11.40
2018-09-28T06:55:27.760Z,11.60
2018-09-28T06:57:55.458Z,11.90
2018-09-28T07:00:25.107Z,12.20
2018-09-28T07:02:52.797Z,12.40
2018-09-28T07:05:20.545Z,12.60
2018-09-28T07:07:48.232Z,12.70
2018-09-28T07:10:16.065Z,12.80
2018-09-28T07:12:43.785Z,12.90
2018-09-28T07:15:11.491Z,13.10
2018-09-28T07:17:39.288Z,13.20
2018-09-28T07:20:08.053Z,13.30
2018-09-28T07:22:36.122Z,13.50
2018-09-28T07:28:02.939Z,13.80
2018-09-28T07:30:42.805Z,14.00
2018-09-28T07:53:58.347Z,15.40
2018-09-28T07:56:33.597Z,15.60
2018-09-28T07:59:01.405Z,15.90
2018-09-28T08:01:29.139Z,16.10
2018-09-28T08:03:57.031Z,16.40
2018-09-28T08:06:24.715Z,16.40
2018-09-28T08:08:52.317Z,16.70
2018-09-28T08:11:20.107Z,16.70
2018-09-28T08:13:47.900Z,16.80
2018-09-28T08:16:15.502Z,17.00
2018-09-28T08:18:43.208Z,17.30
2018-09-28T08:21:12.704Z,17.40
2018-09-28T08:23:40.497Z,17.70
2018-09-28T08:26:08.217Z,17.80
2018-09-28T08:28:35.903Z,17.80
2018-09-28T08:31:03.674Z,18.00
2018-09-28T08:33:31.446Z,18.10
2018-09-28T08:35:59.204Z,18.00
2018-09-28T08:38:27.015Z,18.00
2018-09-28T08:40:54.768Z,18.20
2018-09-28T08:43:22.491Z,18.40
2018-09-28T08:45:50.108Z,18.60
2018-09-28T08:48:17.851Z,18.50
2018-09-28T08:50:45.558Z,18.40
2018-09-28T08:53:18.860Z,18.50
2018-09-28T08:55:46.728Z,18.60
2018-09-28T08:58:14.502Z,18.70
2018-09-28T09:00:42.357Z,18.90
2018-09-28T09:03:10.274Z,19.00
2018-09-28T09:05:38.118Z,18.90
2018-09-28T09:08:06.238Z,19.10
2018-09-28T09:10:34.782Z,19.20
2018-09-28T09:13:02.628Z,19.50
2018-09-28T09:15:30.340Z,19.70
2018-09-28T09:17:58.136Z,19.60
2018-09-28T09:26:16.549Z,19.60
2018-09-28T09:28:54.316Z,19.40
2018-09-28T09:31:30.246Z,19.40
2018-09-28T09:34:37.698Z,19.80
2018-09-28T09:37:32.363Z,20.20
2018-09-28T09:40:04.774Z,20.50
2018-09-28T09:42:35.963Z,20.30
2018-09-28T09:45:26.593Z,20.00
2018-09-28T09:47:57.096Z,19.90
2018-09-28T09:50:36.017Z,19.80
2018-09-28T09:53:23.786Z,19.40
2018-09-28T09:55:56.261Z,19.00
2018-09-28T09:58:30.284Z,19.00
2018-09-28T10:01:16.457Z,18.90
2018-09-28T10:03:53.876Z,18.70
2018-09-28T10:06:25.739Z,18.60
2018-09-28T10:08:53.464Z,18.40
2018-09-28T10:11:21.366Z,18.40
2018-09-28T10:13:49.114Z,18.40
2018-09-28T10:16:16.895Z,18.20
2018-09-28T10:18:44.539Z,17.90
2018-09-28T10:21:12.155Z,17.90
2018-09-28T10:23:39.787Z,17.90
2018-09-28T10:26:07.473Z,17.70
2018-09-28T10:28:38.353Z,17.50
2018-09-28T10:31:06.003Z,17.40
2018-09-28T10:33:33.747Z,17.10
2018-09-28T10:36:01.396Z,17.20
2018-09-28T10:38:29.046Z,17.10
2018-09-28T10:40:57.053Z,17.00
2018-09-28T10:43:31.274Z,16.90
2018-09-28T10:45:59.070Z,16.90
2018-09-28T10:48:26.730Z,16.90
2018-09-28T10:50:55.259Z,16.80
2018-09-28T10:53:23.055Z,16.80
2018-09-28T10:55:50.993Z,16.70
2018-09-28T10:58:18.688Z,16.70
2018-09-28T11:00:46.488Z,16.50
2018-09-28T11:03:14.249Z,16.50
2018-09-28T11:05:42.002Z,16.40
2018-09-28T11:08:09.619Z,16.50
2018-09-28T11:10:37.479Z,16.50
2018-09-28T11:13:05.102Z,16.60
2018-09-28T11:15:32.910Z,16.60
2018-09-28T11:18:00.587Z,16.70
2018-09-28T11:20:28.231Z,16.70
2018-09-28T11:22:55.856Z,16.70
2018-09-28T11:25:23.515Z,16.70
2018-09-28T11:27:51.262Z,16.80
2018-09-28T11:30:18.881Z,16.80
2018-09-28T11:32:46.554Z,16.90
2018-09-28T11:35:14.191Z,16.90
2018-09-28T11:37:41.933Z,17.00
2018-09-28T11:40:14.646Z,17.00
2018-09-28T11:42:42.282Z,16.90
2018-09-28T11:45:10.118Z,16.80
2018-09-28T11:47:43.258Z,16.80
2018-09-28T11:50:11.245Z,16.80
2018-09-28T11:52:38.897Z,16.70
2018-09-28T11:55:06.648Z,16.70
2018-09-28T11:57:35.471Z,16.70
2018-09-28T12:00:03.134Z,16.80
2018-09-28T12:02:31.509Z,16.80
2018-09-28T12:04:59.634Z,16.60
2018-09-28T12:07:27.292Z,16.50
2018-09-28T12:09:56.045Z,16.20
2018-09-28T12:12:23.750Z,16.20
2018-09-28T12:14:51.530Z,16.10
2018-09-28T12:17:19.185Z,15.90
2018-09-28T12:20:03.554Z,15.80
2018-09-28T12:22:43.733Z,15.60
2018-09-28T12:25:12.945Z,15.60
2018-09-28T12:27:40.726Z,15.50
2018-09-28T12:30:08.738Z,15.50
2018-09-28T12:32:36.466Z,15.60
2018-09-28T12:35:06.265Z,15.60
2018-09-28T12:37:34.384Z,15.50
2018-09-28T12:40:02.690Z,15.60
2018-09-28T12:42:30.521Z,15.50
2018-09-28T12:44:58.976Z,15.50
2018-09-28T12:47:26.922Z,15.30
2018-09-28T12:49:55.845Z,15.50
2018-09-28T12:52:23.554Z,15.50
2018-09-28T12:57:44.659Z,15.40
2018-09-28T13:03:00.509Z,15.50
2018-09-28T13:05:29.382Z,15.50
2018-09-28T13:07:57.130Z,15.50
2018-09-28T13:10:25.018Z,15.60
2018-09-28T13:12:53.714Z,15.80
2018-09-28T13:15:21.450Z,15.80
2018-09-28T13:17:49.136Z,15.80
2018-09-28T13:20:19.990Z,15.70
2018-09-28T13:22:53.751Z,15.70
2018-09-28T13:25:25.134Z,15.80
2018-09-28T13:27:52.807Z,16.00
2018-09-28T13:30:34.235Z,16.20
2018-09-28T13:33:20.961Z,16.50
2018-09-28T13:35:56.855Z,16.60
2018-09-28T13:38:45.014Z,16.50
2018-09-28T13:41:22.721Z,16.40
2018-09-28T13:43:50.479Z,16.30
2018-09-28T13:46:34.029Z,16.10
2018-09-28T13:49:02.752Z,16.10
2018-09-28T13:51:30.611Z,15.80
2018-09-28T13:53:58.507Z,15.80
2018-09-28T13:56:30.937Z,15.80
2018-09-28T13:59:12.828Z,15.80
2018-09-28T14:01:40.603Z,15.80
2018-09-28T14:04:08.420Z,15.70
2018-09-28T14:06:47.911Z,15.90
2018-09-28T14:09:18.501Z,15.90
2018-09-28T14:11:46.244Z,15.90
2018-09-28T14:14:14.236Z,15.90
2018-09-28T14:16:42.356Z,15.90
2018-09-28T14:19:10.158Z,15.90
2018-09-28T14:21:37.936Z,16.00
2018-09-28T14:24:07.701Z,15.90
2018-09-28T14:26:35.982Z,16.00
2018-09-28T14:29:04.883Z,15.90
2018-09-28T14:32:02.110Z,15.80
2018-09-28T14:34:32.235Z,15.80
2018-09-28T14:37:00.000Z,15.70
2018-09-28T14:39:29.034Z,15.60
2018-09-28T14:42:04.650Z,15.60
2018-09-28T14:44:32.561Z,15.60
2018-09-28T14:47:00.502Z,15.50
2018-09-28T14:49:31.354Z,15.50
2018-09-28T14:51:59.223Z,15.40
2018-09-28T14:54:27.655Z,15.40
2018-09-28T14:56:56.042Z,15.40
2018-09-28T14:59:23.921Z,15.40
2018-09-28T15:01:51.716Z,15.40
2018-09-28T15:04:19.512Z,15.40
2018-09-28T15:06:50.158Z,15.30
2018-09-28T15:09:21.802Z,15.20
2018-09-28T15:11:49.703Z,15.20
2018-09-28T15:14:19.422Z,15.30
2018-09-28T15:16:48.054Z,15.20
2018-09-28T15:19:17.767Z,15.20
2018-09-28T15:22:05.358Z,15.30
2018-09-28T15:24:33.003Z,15.20
2018-09-28T15:27:00.715Z,15.20
2018-09-28T15:29:33.848Z,15.00
2018-09-28T15:35:11.523Z,15.00
2018-09-28T15:37:48.114Z,15.10
2018-09-28T15:40:15.839Z,15.10
2018-09-28T15:42:43.486Z,15.00
2018-09-28T15:45:15.160Z,15.00
2018-09-28T15:47:47.477Z,15.00
2018-09-28T15:50:15.086Z,14.90
2018-09-28T15:52:42.694Z,14.90
2018-09-28T15:55:10.372Z,14.90
2018-09-28T16:11:51.217Z,14.80
2018-09-28T16:17:08.887Z,14.60
2018-09-28T16:19:38.150Z,14.50
2018-09-28T16:22:11.684Z,14.40
2018-09-28T16:24:40.803Z,14.20
2018-09-28T16:27:08.749Z,14.10
2018-09-28T16:29:37.289Z,14.00
2018-09-28T16:32:05.333Z,14.00
2018-09-28T16:34:36.825Z,13.90
2018-09-28T19:56:43.147Z,10.40
2018-09-28T19:59:13.184Z,10.10
2018-09-28T20:19:22.838Z,10.20
2018-09-28T20:24:32.583Z,9.80
2018-09-28T20:27:01.283Z,9.80
2018-09-28T20:29:29.861Z,9.80
2018-09-28T20:31:57.907Z,9.80
2018-09-28T20:34:26.020Z,9.70
2018-09-28T20:37:01.433Z,9.50
2018-09-28T20:39:39.094Z,9.50
2018-09-28T20:42:08.437Z,9.40
2018-09-28T20:44:39.147Z,9.30
2018-09-28T20:47:07.605Z,9.30
2018-09-28T20:49:36.657Z,9.20
2018-09-28T20:52:05.657Z,9.10
2018-09-28T20:54:35.077Z,9.00
2018-09-28T20:57:04.859Z,9.00
2018-09-28T20:59:33.660Z,9.10
2018-09-28T21:02:02.413Z,9.10
2018-09-28T21:04:30.353Z,9.20
2018-09-28T21:06:58.229Z,9.20
2018-09-28T21:09:28.498Z,9.20
2018-09-28T21:11:56.556Z,9.20
2018-09-28T21:14:25.355Z,9.00
2018-09-28T21:16:54.305Z,8.90
2018-09-28T21:19:22.575Z,8.90
2018-09-28T21:21:51.585Z,8.90
2018-09-28T21:24:19.546Z,8.90
2018-09-28T21:26:47.264Z,8.80
2018-09-28T21:29:15.208Z,8.70
2018-09-28T21:31:42.796Z,8.70
2018-09-28T21:34:10.717Z,8.60
2018-09-28T21:36:38.538Z,8.50
2018-09-28T21:39:07.065Z,8.60
2018-09-28T21:41:34.825Z,8.50
2018-09-28T21:44:02.556Z,8.50
2018-09-28T21:46:31.809Z,8.40
2018-09-28T21:49:01.441Z,8.40
2018-09-28T21:51:29.351Z,8.30
2018-09-28T21:53:57.032Z,8.20
2018-09-28T21:56:24.738Z,8.10
2018-09-28T21:58:52.723Z,8.20
2018-09-28T22:01:20.517Z,8.00
2018-09-28T22:03:49.532Z,8.20
2018-09-28T22:06:17.307Z,8.30
2018-09-28T22:08:45.500Z,8.30
2018-09-28T22:11:26.417Z,8.50
2018-09-28T22:13:54.166Z,8.60
2018-09-28T22:16:21.902Z,8.70
2018-09-28T22:18:49.663Z,8.70
2018-09-28T22:21:17.332Z,8.70
2018-09-28T22:23:45.105Z,8.80
2018-09-28T22:26:12.796Z,8.80
2018-09-28T22:28:40.530Z,8.60
2018-09-28T22:31:08.305Z,8.50
2018-09-28T22:33:36.119Z,8.40
2018-09-28T22:36:03.943Z,8.50
2018-09-28T22:38:31.674Z,8.50
2018-09-28T22:40:59.660Z,8.50
2018-09-28T22:43:27.401Z,8.50
2018-09-28T22:45:55.128Z,8.50
2018-09-28T22:48:22.825Z,8.40
2018-09-28T22:50:51.962Z,8.30
2018-09-28T22:53:20.559Z,8.20
2018-09-28T22:55:50.172Z,8.20
2018-09-28T22:58:20.450Z,8.20
2018-09-28T23:00:48.573Z,8.30
2018-09-28T23:03:18.069Z,8.20
2018-09-28T23:05:47.814Z,8.30
2018-09-28T23:08:17.542Z,8.30
2018-09-28T23:10:46.777Z,8.40
2018-09-28T23:13:17.321Z,8.20
2018-09-28T23:15:46.430Z,8.10
2018-09-28T23:18:16.873Z,8.00
2018-09-28T23:20:45.784Z,8.00
2018-09-28T23:23:14.955Z,7.90
2018-09-28T23:25:44.347Z,7.80
2018-09-28T23:28:13.527Z,7.90
2018-09-28T23:30:42.020Z,7.90
2018-09-28T23:33:11.017Z,7.90
2018-09-28T23:35:39.487Z,7.80
2018-09-28T23:38:09.247Z,7.80
2018-09-28T23:40:40.647Z,7.80
2018-09-28T23:43:11.298Z,7.70
2018-09-28T23:45:40.405Z,7.60
2018-09-28T23:48:10.481Z,7.50
2018-09-28T23:50:40.609Z,7.40
2018-09-28T23:53:11.453Z,7.30
2018-09-28T23:55:39.774Z,7.20
2018-09-28T23:58:10.788Z,7.30
